Time;durP1;ratioP1;P1;durP2;ratioP2;P2;SDS_P1;SDS_P2;PMS_P1;PMS_P2;Temp;Humidity;BMP_temperature;BMP_pressure;BME280_temperature;BME280_humidity;BME280_pressure;Samples;Min_cycle;Max_cycle;Signal;HPM_P1;HPM_P2
2022/05/14 00:00:25;;;;;;;;;20.67;20.67;28.10;41.50;;;;;;5036747;28;8792;-74
2022/05/14 00:02:51;;;;;;;;;18.33;18.33;28.20;41.50;;;;;;5036822;28;9447;-74
2022/05/14 00:05:21;;;;;;;;;15.67;15.67;28.30;41.30;;;;;;5037058;28;8856;-74
2022/05/14 00:07:48;;;;;;;;;23.33;23.33;28.00;41.40;;;;;;5037180;28;8877;-74
2022/05/14 00:10:14;;;;;;;;;21.00;20.00;28.00;41.60;;;;;;5036917;28;8750;-74
2022/05/14 00:15:25;;;;;;;;;19.00;19.00;28.10;41.10;;;;;;5036908;28;8789;-74
2022/05/14 00:17:51;;;;;;;;;20.67;20.67;28.10;41.30;;;;;;5032565;28;8919;-74
2022/05/14 00:20:18;;;;;;;;;19.33;19.33;28.00;41.60;;;;;;5028406;28;8782;-74
2022/05/14 00:22:44;;;;;;;;;20.33;19.33;27.90;41.60;;;;;;5017038;28;8760;-74
2022/05/14 00:25:10;;;;;;;;;18.00;18.00;28.00;41.40;;;;;;5016839;28;8761;-75
2022/05/14 00:27:42;;;;;;;;;17.33;17.33;28.10;41.60;;;;;;5016765;28;9469;-75
2022/05/14 00:30:09;;;;;;;;;16.00;16.00;27.90;41.60;;;;;;5016765;28;8803;-74
2022/05/14 00:32:36;;;;;;;;;21.67;21.67;27.80;42.10;;;;;;5016305;28;8843;-74
2022/05/14 00:35:02;;;;;;;;;18.33;18.33;27.80;42.20;;;;;;5016543;28;8830;-75
2022/05/14 00:37:27;;;;;;;;;22.67;22.67;27.90;42.10;;;;;;5016574;28;8768;-75
2022/05/14 00:39:53;;;;;;;;;19.33;19.33;27.90;41.80;;;;;;5016967;28;8772;-75
2022/05/14 00:42:19;;;;;;;;;20.33;20.33;27.90;41.90;;;;;;5016076;28;8776;-74
2022/05/14 00:44:44;;;;;;;;;22.67;22.67;27.90;42.10;;;;;;5016476;28;8784;-74
2022/05/14 00:47:14;;;;;;;;;19.33;19.33;27.70;42.30;;;;;;5016856;28;8772;-74
2022/05/14 00:49:40;;;;;;;;;15.33;15.33;27.70;42.10;;;;;;5026552;28;9428;-75
2022/05/14 00:52:13;;;;;;;;;19.67;19.67;27.70;42.10;;;;;;5036148;28;8774;-74
2022/05/14 00:54:45;;;;;;;;;20.00;20.00;27.70;42.10;;;;;;5036371;28;8783;-74
2022/05/14 00:57:13;;;;;;;;;16.33;16.33;27.60;41.90;;;;;;5035864;28;8900;-73
2022/05/14 00:59:39;;;;;;;;;16.00;16.00;27.60;42.30;;;;;;5036004;28;8777;-75
2022/05/14 01:02:06;;;;;;;;;15.67;15.67;27.60;42.30;;;;;;5036129;28;8816;-75
2022/05/14 01:04:33;;;;;;;;;21.00;21.00;27.60;42.30;;;;;;5036164;28;8785;-76
2022/05/14 01:07:11;;;;;;;;;15.67;15.67;27.60;42.30;;;;;;5034996;28;8839;-75
2022/05/14 01:09:40;;;;;;;;;26.67;26.67;27.70;42.40;;;;;;5026513;28;8778;-75
2022/05/14 01:12:07;;;;;;;;;23.33;23.33;27.70;42.50;;;;;;5016198;28;8761;-75
2022/05/14 01:14:33;;;;;;;;;27.00;26.33;27.70;42.60;;;;;;5015927;28;8886;-75
2022/05/14 01:16:59;;;;;;;;;22.67;22.67;27.60;42.70;;;;;;5015572;28;8787;-76
2022/05/14 01:19:25;;;;;;;;;21.33;21.33;27.70;42.70;;;;;;5015514;28;8808;-72
2022/05/14 01:22:28;;;;;;;;;12.00;12.00;27.70;42.40;;;;;;5015904;28;8760;-71
2022/05/14 01:28:11;;;;;;;;;22.00;22.00;27.50;42.70;;;;;;5016206;28;8752;-73
2022/05/14 01:30:55;;;;;;;;;19.33;19.33;27.40;42.70;;;;;;5023099;28;8792;-73
2022/05/14 01:33:21;;;;;;;;;23.33;22.33;27.20;43.20;;;;;;5035050;28;8801;-72
2022/05/14 01:35:48;;;;;;;;;20.67;20.67;27.00;43.50;;;;;;5023659;28;8796;-72
2022/05/14 01:38:14;;;;;;;;;22.33;21.33;27.20;43.40;;;;;;5015558;28;8946;-72
2022/05/14 01:40:40;;;;;;;;;23.33;22.33;27.30;43.10;;;;;;5015382;28;8784;-73
2022/05/14 01:43:05;;;;;;;;;23.67;23.67;27.30;43.00;;;;;;5015321;28;8858;-72
2022/05/14 01:45:32;;;;;;;;;19.33;19.33;27.10;43.30;;;;;;5015636;28;9418;-72
2022/05/14 01:47:58;;;;;;;;;19.67;19.67;26.80;43.40;;;;;;5015448;28;8887;-72
2022/05/14 01:50:24;;;;;;;;;23.00;23.00;26.80;43.70;;;;;;5015255;28;8810;-72
2022/05/14 01:52:50;;;;;;;;;17.67;17.67;26.70;43.90;;;;;;5015003;28;8807;-73
2022/05/14 01:55:15;;;;;;;;;21.00;21.00;26.70;43.90;;;;;;5015472;28;8772;-72
2022/05/14 01:57:41;;;;;;;;;19.00;19.00;26.70;43.80;;;;;;5015427;28;8828;-72
2022/05/14 02:00:10;;;;;;;;;21.33;21.33;26.90;43.80;;;;;;5015421;28;8891;-73
2022/05/14 02:02:35;;;;;;;;;15.00;15.00;26.90;43.90;;;;;;5015081;28;8870;-72
2022/05/14 02:05:01;;;;;;;;;19.00;19.00;26.50;43.80;;;;;;5015405;28;8772;-72
2022/05/14 02:07:27;;;;;;;;;14.00;14.00;26.10;45.10;;;;;;5015021;28;9461;-72
2022/05/14 02:09:53;;;;;;;;;19.00;19.00;26.00;45.40;;;;;;5014810;28;8787;-72
2022/05/14 02:12:18;;;;;;;;;19.33;19.33;26.00;45.00;;;;;;5014907;28;8761;-72
2022/05/14 02:14:45;;;;;;;;;18.67;18.67;25.60;45.50;;;;;;5014933;28;8902;-72
2022/05/14 02:17:12;;;;;;;;;13.00;13.00;25.50;45.60;;;;;;5015217;28;8882;-72
2022/05/14 02:19:38;;;;;;;;;16.67;16.67;25.50;46.20;;;;;;5014717;28;8784;-73
2022/05/14 02:22:05;;;;;;;;;15.33;15.33;25.80;45.40;;;;;;5014702;28;8791;-72
2022/05/14 02:24:33;;;;;;;;;17.33;17.33;25.80;45.50;;;;;;5014641;28;8772;-72
2022/05/14 02:26:59;;;;;;;;;14.00;14.00;25.90;45.20;;;;;;5014921;28;8776;-72
2022/05/14 02:29:24;;;;;;;;;19.33;19.33;26.00;44.80;;;;;;5014670;28;8776;-72
2022/05/14 02:31:51;;;;;;;;;14.00;14.00;26.20;45.00;;;;;;5014917;28;8835;-72
2022/05/14 02:34:17;;;;;;;;;15.00;15.00;25.90;45.10;;;;;;5014477;28;8847;-73
2022/05/14 02:36:44;;;;;;;;;20.00;20.00;26.00;45.10;;;;;;5014862;28;8792;-73
2022/05/14 02:39:10;;;;;;;;;18.00;18.00;25.90;45.20;;;;;;5014832;28;8831;-73
2022/05/14 02:41:36;;;;;;;;;17.67;17.67;25.80;45.40;;;;;;5024097;28;8809;-73
2022/05/14 02:44:02;;;;;;;;;17.00;17.00;25.60;46.20;;;;;;5025416;28;8766;-74
2022/05/14 02:46:28;;;;;;;;;18.67;18.67;25.80;45.70;;;;;;5014417;28;8764;-73
2022/05/14 02:48:54;;;;;;;;;18.00;18.00;26.10;45.10;;;;;;5014617;28;8855;-73
2022/05/14 02:51:20;;;;;;;;;18.33;18.33;26.00;45.10;;;;;;5014501;28;8764;-73
2022/05/14 02:53:47;;;;;;;;;14.67;14.67;26.20;44.70;;;;;;5014586;28;8756;-74
2022/05/14 02:56:13;;;;;;;;;14.00;14.00;26.30;44.10;;;;;;5014360;28;8869;-73
2022/05/14 03:01:23;;;;;;;;;17.67;17.67;25.90;45.30;;;;;;5014236;28;8740;-73
2022/05/14 03:03:49;;;;;;;;;11.33;11.33;26.00;44.70;;;;;;5014378;28;8902;-74
2022/05/14 03:06:14;;;;;;;;;13.00;13.00;26.00;45.20;;;;;;5014103;28;9415;-73
2022/05/14 03:08:40;;;;;;;;;18.67;18.67;26.20;44.80;;;;;;5014086;28;8955;-74
2022/05/14 03:11:06;;;;;;;;;14.33;14.33;26.40;44.30;;;;;;5014078;28;8788;-73
2022/05/14 03:13:31;;;;;;;;;13.33;13.33;26.60;43.80;;;;;;5014304;28;8816;-73
2022/05/14 03:15:57;;;;;;;;;13.00;13.00;26.60;43.60;;;;;;5014024;28;8795;-73
2022/05/14 03:18:23;;;;;;;;;15.67;15.67;26.50;43.40;;;;;;5014102;28;8791;-73
2022/05/14 03:20:49;;;;;;;;;16.67;16.67;26.40;43.90;;;;;;5013993;28;8773;-73
2022/05/14 03:23:15;;;;;;;;;17.00;17.00;26.50;43.80;;;;;;5020740;28;8793;-73
2022/05/14 03:25:40;;;;;;;;;14.33;14.33;26.30;44.00;;;;;;5031899;28;8762;-73
2022/05/14 03:28:06;;;;;;;;;14.00;14.00;26.30;44.20;;;;;;5013617;28;8889;-73
2022/05/14 03:30:32;;;;;;;;;15.00;15.00;26.20;44.50;;;;;;5016492;28;8782;-73
2022/05/14 03:32:58;;;;;;;;;14.67;14.67;26.00;44.80;;;;;;5013796;28;8812;-73
2022/05/14 03:35:24;;;;;;;;;16.00;16.00;25.90;45.60;;;;;;5014174;28;8788;-73
2022/05/14 03:37:49;;;;;;;;;15.33;15.33;25.90;45.60;;;;;;5012759;28;8809;-73
2022/05/14 03:40:15;;;;;;;;;16.33;16.33;25.90;45.30;;;;;;5013870;28;8800;-73
2022/05/14 03:42:42;;;;;;;;;15.33;15.33;25.50;46.50;;;;;;5013856;28;8787;-73
2022/05/14 03:45:08;;;;;;;;;15.67;15.67;25.40;46.90;;;;;;5013540;28;8792;-73
2022/05/14 03:47:34;;;;;;;;;15.67;15.67;25.20;47.40;;;;;;5013527;28;8797;-72
2022/05/14 03:49:59;;;;;;;;;14.67;14.67;25.30;47.20;;;;;;5013971;28;8791;-73
2022/05/14 03:52:25;;;;;;;;;15.33;15.33;25.50;47.00;;;;;;5013562;28;8815;-72
2022/05/14 03:54:51;;;;;;;;;16.00;16.00;25.60;46.40;;;;;;5013593;28;8790;-72
2022/05/14 03:57:17;;;;;;;;;14.33;14.33;25.40;46.60;;;;;;5013917;28;8806;-73
2022/05/14 03:59:42;;;;;;;;;15.67;15.67;25.50;46.70;;;;;;5013549;28;8853;-73
2022/05/14 04:02:08;;;;;;;;;13.00;13.00;25.90;46.30;;;;;;5013775;28;8756;-73
2022/05/14 04:04:34;;;;;;;;;13.33;13.33;26.20;45.50;;;;;;5013464;28;8796;-73
2022/05/14 04:07:00;;;;;;;;;10.33;10.33;26.40;44.70;;;;;;5013876;28;8849;-73
2022/05/14 04:09:26;;;;;;;;;12.00;11.00;26.60;44.30;;;;;;5013497;28;8879;-73
2022/05/14 04:11:53;;;;;;;;;12.67;12.67;26.60;44.10;;;;;;5013495;28;8784;-73
2022/05/14 04:14:19;;;;;;;;;13.00;13.00;26.60;43.70;;;;;;5013529;28;8791;-73
2022/05/14 04:16:45;;;;;;;;;14.00;14.00;26.60;43.50;;;;;;5020297;28;8796;-73
2022/05/14 04:19:11;;;;;;;;;12.33;12.33;26.50;43.70;;;;;;5025885;28;8799;-73
2022/05/14 04:21:38;;;;;;;;;12.67;12.67;26.60;43.90;;;;;;5036701;28;9325;-73
2022/05/14 04:24:05;;;;;;;;;12.33;12.33;26.70;43.30;;;;;;5036745;28;8765;-73
2022/05/14 04:26:30;;;;;;;;;10.33;10.33;26.60;43.30;;;;;;5036487;28;11522;-73
2022/05/14 04:28:56;;;;;;;;;13.67;13.67;26.70;43.40;;;;;;5036640;28;8793;-73
2022/05/14 04:31:22;;;;;;;;;12.00;12.00;27.00;42.80;;;;;;5034320;28;8781;-73
2022/05/14 04:33:48;;;;;;;;;13.67;13.67;27.00;42.20;;;;;;5034283;28;8837;-73
2022/05/14 04:36:15;;;;;;;;;11.00;11.00;27.10;42.30;;;;;;5022818;28;8834;-72
2022/05/14 04:38:41;;;;;;;;;14.00;14.00;26.80;42.20;;;;;;5017313;28;11495;-73
2022/05/14 04:41:07;;;;;;;;;13.67;13.67;26.20;43.50;;;;;;5017043;28;8764;-73
2022/05/14 04:43:33;;;;;;;;;12.67;12.67;25.90;44.30;;;;;;5018057;28;8807;-73
2022/05/14 04:45:59;;;;;;;;;13.33;13.33;25.90;44.30;;;;;;5031546;28;8766;-75
2022/05/14 04:48:25;;;;;;;;;16.33;16.33;25.70;44.80;;;;;;5017136;28;8852;-78
2022/05/14 04:50:51;;;;;;;;;16.00;16.00;25.30;46.20;;;;;;5026843;28;8762;-74
2022/05/14 04:53:17;;;;;;;;;21.67;21.67;25.40;46.60;;;;;;5016791;28;8756;-74
2022/05/14 04:55:43;;;;;;;;;17.33;17.33;25.10;47.60;;;;;;5016564;28;9403;-74
2022/05/14 04:58:09;;;;;;;;;19.67;19.67;25.00;48.30;;;;;;5016715;28;8776;-74
2022/05/14 05:00:37;;;;;;;;;19.33;19.33;25.00;48.70;;;;;;5016567;28;9437;-74
2022/05/14 05:03:19;;;;;;;;;19.33;19.33;25.00;49.10;;;;;;5016978;28;8800;-75
2022/05/14 05:05:53;;;;;;;;;17.33;17.33;25.00;49.40;;;;;;5016950;28;9218;-73
2022/05/14 05:08:21;;;;;;;;;20.00;20.00;25.40;49.00;;;;;;5016472;28;9010;-72
2022/05/14 05:10:47;;;;;;;;;18.33;18.33;25.40;48.80;;;;;;5016805;28;8776;-72
2022/05/14 05:13:15;;;;;;;;;18.33;18.33;25.70;48.40;;;;;;5016500;28;8783;-73
2022/05/14 05:15:42;;;;;;;;;19.33;19.33;25.90;47.90;;;;;;5016696;28;8804;-73
2022/05/14 05:18:08;;;;;;;;;15.67;15.67;25.80;48.00;;;;;;5016635;28;8768;-73
2022/05/14 05:20:36;;;;;;;;;16.00;16.00;26.00;47.20;;;;;;5016373;28;8814;-72
2022/05/14 05:23:04;;;;;;;;;15.00;15.00;26.20;46.90;;;;;;5016489;28;8790;-72
2022/05/14 05:25:30;;;;;;;;;15.33;15.33;26.20;46.90;;;;;;5016243;28;8780;-73
2022/05/14 05:27:56;;;;;;;;;13.67;13.67;26.20;47.20;;;;;;5015285;28;8918;-72
2022/05/14 05:30:22;;;;;;;;;16.00;16.00;25.90;47.40;;;;;;5016343;28;8902;-73
2022/05/14 05:32:48;;;;;;;;;16.00;16.00;25.80;48.00;;;;;;5016009;28;8792;-73
2022/05/14 05:35:13;;;;;;;;;12.00;12.00;25.60;48.40;;;;;;5016274;28;8874;-72
2022/05/14 05:37:39;;;;;;;;;16.67;16.67;25.40;49.40;;;;;;5016212;28;8784;-72
2022/05/14 05:40:05;;;;;;;;;15.67;15.67;25.70;49.30;;;;;;5016019;28;8806;-72
2022/05/14 05:42:32;;;;;;;;;17.00;17.00;25.80;48.90;;;;;;5016160;28;9414;-72
2022/05/14 05:44:59;;;;;;;;;15.00;15.00;25.60;49.00;;;;;;5015966;28;8763;-73
2022/05/14 05:47:24;;;;;;;;;15.50;15.50;25.90;48.60;;;;;;5015826;28;8788;-73
2022/05/14 05:49:50;;;;;;;;;15.00;15.00;26.20;48.00;;;;;;5015991;28;8862;-73
2022/05/14 05:52:16;;;;;;;;;13.33;13.33;25.70;48.80;;;;;;5015795;28;9709;-72
2022/05/14 05:57:38;;;;;;;;;12.33;12.33;25.50;49.60;;;;;;5015714;28;8736;-72
2022/05/14 06:00:14;;;;;;;;;14.00;14.00;25.90;49.00;;;;;;5015851;28;8783;-72
2022/05/14 06:02:40;;;;;;;;;7.33;7.33;25.80;49.40;;;;;;5015458;28;8792;-73
2022/05/14 06:05:06;;;;;;;;;11.00;11.00;25.60;49.40;;;;;;5015498;28;8799;-72
2022/05/14 06:07:33;;;;;;;;;14.00;14.00;25.90;49.30;;;;;;5015523;28;8871;-72
2022/05/14 06:10:00;;;;;;;;;15.67;15.67;25.90;49.30;;;;;;5015941;28;8776;-72
2022/05/14 06:12:26;;;;;;;;;11.33;9.00;26.10;48.80;;;;;;5015628;28;8764;-72
2022/05/14 06:14:51;;;;;;;;;9.00;9.00;26.10;48.70;;;;;;5015277;28;9456;-72
2022/05/14 06:17:17;;;;;;;;;10.00;10.00;26.20;48.10;;;;;;5015272;28;8791;-71
2022/05/14 06:19:43;;;;;;;;;13.33;13.33;26.20;48.30;;;;;;5015396;28;8780;-71
2022/05/14 06:22:09;;;;;;;;;12.67;12.67;25.60;49.80;;;;;;5015154;28;8838;-72
2022/05/14 06:24:38;;;;;;;;;14.33;14.33;25.50;50.30;;;;;;5015433;28;8784;-71
2022/05/14 06:27:04;;;;;;;;;13.67;13.67;25.40;50.40;;;;;;5015112;28;8780;-71
2022/05/14 06:29:31;;;;;;;;;13.33;13.33;25.80;50.00;;;;;;5014843;28;9482;-71
2022/05/14 06:31:57;;;;;;;;;11.33;11.33;26.20;49.70;;;;;;5015234;28;8873;-73
2022/05/14 06:34:24;;;;;;;;;13.00;13.00;26.30;48.80;;;;;;5014919;28;8836;-72
2022/05/14 06:36:51;;;;;;;;;14.00;14.00;25.90;49.50;;;;;;5014905;28;8780;-72
2022/05/14 06:39:17;;;;;;;;;14.67;14.67;25.80;49.80;;;;;;5014613;28;8776;-72
2022/05/14 06:41:43;;;;;;;;;8.00;8.00;26.00;49.80;;;;;;5014877;28;8809;-73
2022/05/14 06:44:09;;;;;;;;;12.67;12.67;25.90;49.60;;;;;;5014787;28;8784;-73
2022/05/14 06:46:35;;;;;;;;;14.00;14.00;26.00;49.70;;;;;;5014749;28;8796;-72
2022/05/14 06:49:01;;;;;;;;;12.00;12.00;25.70;50.70;;;;;;5014524;28;8796;-72
2022/05/14 06:51:29;;;;;;;;;14.00;14.00;25.80;49.70;;;;;;5014813;28;8780;-72
2022/05/14 06:54:00;;;;;;;;;8.00;8.00;25.70;50.90;;;;;;5014919;28;9445;-72
2022/05/14 06:56:28;;;;;;;;;12.33;12.33;25.50;51.70;;;;;;5015040;28;8776;-72
2022/05/14 06:58:55;;;;;;;;;13.33;13.33;25.20;51.80;;;;;;5014597;28;8886;-72
2022/05/14 07:01:21;;;;;;;;;13.67;13.67;25.40;52.50;;;;;;5014867;28;8784;-72
2022/05/14 07:06:40;;;;;;;;;13.67;13.67;26.00;50.10;;;;;;5014666;28;8736;-72
2022/05/14 07:09:14;;;;;;;;;12.00;12.00;25.70;50.50;;;;;;5014792;28;8865;-73
2022/05/14 07:11:42;;;;;;;;;12.33;12.33;25.60;50.30;;;;;;5014506;28;8753;-73
2022/05/14 07:14:10;;;;;;;;;12.00;12.00;25.90;49.80;;;;;;5014346;28;8833;-74
2022/05/14 07:16:36;;;;;;;;;13.33;13.33;25.80;49.70;;;;;;5014740;28;8819;-73
2022/05/14 07:19:02;;;;;;;;;15.33;15.33;26.20;49.80;;;;;;5014332;28;8768;-74
2022/05/14 07:21:28;;;;;;;;;11.00;11.00;26.20;50.00;;;;;;5014391;28;8772;-75
2022/05/14 07:23:53;;;;;;;;;13.33;13.33;25.90;49.30;;;;;;5014388;28;8773;-73
2022/05/14 07:26:19;;;;;;;;;12.00;12.00;25.80;50.40;;;;;;5014309;28;8760;-71
2022/05/14 07:28:45;;;;;;;;;13.33;13.33;26.20;49.30;;;;;;5014550;28;8816;-72
2022/05/14 07:31:11;;;;;;;;;10.67;10.67;26.10;49.40;;;;;;5014300;28;8820;-73
2022/05/14 07:33:37;;;;;;;;;15.67;15.67;26.20;48.90;;;;;;5012938;28;8831;-73
2022/05/14 07:36:13;;;;;;;;;17.67;17.67;26.30;49.90;;;;;;5014266;28;9693;-74
2022/05/14 07:38:40;;;;;;;;;15.67;15.67;26.50;48.60;;;;;;5012565;28;8858;-73
2022/05/14 07:41:07;;;;;;;;;15.00;15.00;26.10;48.50;;;;;;5014497;28;8865;-74
2022/05/14 07:43:36;;;;;;;;;11.33;11.33;25.80;49.10;;;;;;5014481;28;8799;-73
2022/05/14 07:46:06;;;;;;;;;15.67;15.67;25.50;49.50;;;;;;5014344;28;8780;-73
2022/05/14 07:48:35;;;;;;;;;15.67;15.67;25.70;49.80;;;;;;5014394;28;8804;-73
2022/05/14 07:51:04;;;;;;;;;16.00;16.00;25.90;49.70;;;;;;5014829;28;8798;-73
2022/05/14 07:53:31;;;;;;;;;13.00;13.00;25.60;49.30;;;;;;5017870;28;8793;-73
2022/05/14 07:56:01;;;;;;;;;16.67;16.33;25.40;49.40;;;;;;5017754;28;8799;-73
2022/05/14 07:58:27;;;;;;;;;15.67;15.67;25.50;50.10;;;;;;5018157;28;8768;-73
2022/05/14 08:00:54;;;;;;;;;16.33;16.33;25.40;50.10;;;;;;5017782;28;8965;-73
2022/05/14 08:03:23;;;;;;;;;16.00;16.00;26.10;49.70;;;;;;5017937;28;8915;-72
2022/05/14 08:05:50;;;;;;;;;16.00;16.00;26.40;48.20;;;;;;5018030;28;9493;-74
2022/05/14 08:08:16;;;;;;;;;14.67;14.67;26.20;48.20;;;;;;5017650;28;8834;-74
2022/05/14 08:10:41;;;;;;;;;14.00;14.00;26.20;48.90;;;;;;5017912;28;8768;-74
2022/05/14 08:13:13;;;;;;;;;12.00;12.00;26.50;47.90;;;;;;5017781;28;9516;-74
2022/05/14 08:15:39;;;;;;;;;9.00;9.00;26.50;46.80;;;;;;5032938;28;8819;-74
2022/05/14 08:18:05;;;;;;;;;15.00;15.00;26.10;47.70;;;;;;5017558;28;8780;-74
2022/05/14 08:20:30;;;;;;;;;12.00;12.00;25.90;48.10;;;;;;5017254;28;8842;-74
2022/05/14 08:25:40;;;;;;;;;13.67;13.67;25.70;47.10;;;;;;5017284;28;8740;-73
2022/05/14 08:28:06;;;;;;;;;12.00;12.00;25.40;46.60;;;;;;5017431;28;8878;-72
2022/05/14 08:30:34;;;;;;;;;10.67;10.67;25.40;46.40;;;;;;5017178;28;8847;-73
2022/05/14 08:33:00;;;;;;;;;22.00;21.67;25.60;47.40;;;;;;5017121;28;8906;-75
2022/05/14 08:35:26;;;;;;;;;14.67;14.67;26.20;46.40;;;;;;5017229;28;8804;-74
2022/05/14 08:37:54;;;;;;;;;14.00;14.00;26.00;46.20;;;;;;5017396;28;8846;-75
2022/05/14 08:40:22;;;;;;;;;14.67;14.67;25.90;47.00;;;;;;5017059;28;8753;-74
2022/05/14 08:42:54;;;;;;;;;15.00;15.00;26.00;46.90;;;;;;5017258;28;8788;-74
2022/05/14 08:45:22;;;;;;;;;16.00;16.00;26.50;46.90;;;;;;5016923;28;11520;-74
2022/05/14 08:48:11;;;;;;;;;16.00;16.00;27.40;45.90;;;;;;5016931;28;8866;-76
2022/05/14 08:50:38;;;;;;;;;14.67;14.67;27.30;43.40;;;;;;5010453;28;8808;-76
2022/05/14 08:53:08;;;;;;;;;16.00;16.00;27.20;42.90;;;;;;5017202;28;8772;-77
2022/05/14 08:55:49;;;;;;;;;17.00;17.00;26.50;44.90;;;;;;5032193;28;8874;-76
2022/05/14 08:58:40;;;;;;;;;14.00;14.00;26.90;44.60;;;;;;5016745;28;8820;-76
2022/05/14 09:01:07;;;;;;;;;13.67;13.67;26.90;43.60;;;;;;5011652;28;11525;-76
2022/05/14 09:03:33;;;;;;;;;17.33;17.33;27.00;44.50;;;;;;5016875;28;8882;-78
2022/05/14 09:05:59;;;;;;;;;14.67;14.67;27.10;43.90;;;;;;5016491;28;8760;-80
2022/05/14 09:08:25;;;;;;;;;10.33;10.33;27.40;43.30;;;;;;5016507;28;8804;-73
2022/05/14 09:11:20;;;;;;;;;12.67;12.67;27.90;40.40;;;;;;5016525;28;11491;-72
2022/05/14 09:13:49;;;;;;;;;12.00;12.00;27.70;40.00;;;;;;5011746;28;11526;-72
2022/05/14 09:16:28;;;;;;;;;11.67;11.67;27.40;40.80;;;;;;5016175;28;11536;-73
2022/05/14 09:18:54;;;;;;;;;14.00;14.00;27.40;39.70;;;;;;5016165;28;11505;-73
2022/05/14 09:21:36;;;;;;;;;12.00;12.00;27.40;40.80;;;;;;5016353;28;11603;-72
2022/05/14 09:24:18;;;;;;;;;10.00;10.00;27.90;40.90;;;;;;5016087;28;12174;-71
2022/05/14 09:26:45;;;;;;;;;14.33;14.33;28.00;39.70;;;;;;5016433;28;11573;-73
2022/05/14 09:29:38;;;;;;;;;14.33;14.33;28.20;38.90;;;;;;5016121;28;11529;-74
2022/05/14 09:32:26;;;;;;;;;8.33;8.33;28.60;38.80;;;;;;5016357;28;12304;-74
2022/05/14 09:35:03;;;;;;;;;11.67;11.67;28.00;38.60;;;;;;5008352;28;12325;-74
2022/05/14 09:37:29;;;;;;;;;12.67;12.67;28.30;39.10;;;;;;5016019;28;11533;-73
2022/05/14 09:40:08;;;;;;;;;13.00;13.00;28.20;38.50;;;;;;5015786;28;11517;-74
2022/05/14 09:42:42;;;;;;;;;12.67;12.67;28.70;38.30;;;;;;5015575;28;8780;-73
2022/05/14 09:45:22;;;;;;;;;12.00;12.00;29.20;38.10;;;;;;5016080;28;9458;-74
2022/05/14 09:47:48;;;;;;;;;13.00;13.00;28.80;38.20;;;;;;5015609;28;11522;-73
2022/05/14 09:50:31;;;;;;;;;11.00;11.00;29.00;36.90;;;;;;5015770;28;8807;-74
2022/05/14 09:53:03;;;;;;;;;10.00;10.00;29.20;36.40;;;;;;5015206;28;11501;-74
2022/05/14 09:55:48;;;;;;;;;12.00;12.00;29.40;36.10;;;;;;5015747;28;11483;-73
2022/05/14 09:58:32;;;;;;;;;10.33;10.33;29.60;37.30;;;;;;5015801;28;11503;-72
2022/05/14 10:01:08;;;;;;;;;13.33;13.33;29.60;35.90;;;;;;5015349;28;11526;-72
2022/05/14 10:03:44;;;;;;;;;12.67;12.67;29.70;36.30;;;;;;5015465;28;11538;-72
2022/05/14 10:06:26;;;;;;;;;11.67;11.67;30.30;35.10;;;;;;5015468;28;11510;-73
2022/05/14 10:08:58;;;;;;;;;14.00;14.00;31.00;33.90;;;;;;5015384;28;11657;-72
2022/05/14 10:11:30;;;;;;;;;18.00;18.00;31.40;33.60;;;;;;5015243;28;11569;-73
2022/05/14 10:13:56;;;;;;;;;14.33;14.33;31.10;33.20;;;;;;5014695;28;8752;-73
2022/05/14 10:16:28;;;;;;;;;13.00;13.00;30.90;33.50;;;;;;5015266;28;11520;-73
2022/05/14 10:19:10;;;;;;;;;15.00;15.00;30.80;33.10;;;;;;5014167;28;8776;-73
2022/05/14 10:22:06;;;;;;;;;14.00;14.00;30.80;33.60;;;;;;5015239;28;11589;-72
2022/05/14 10:28:29;;;;;;;;;12.67;12.67;29.80;34.30;;;;;;5015006;28;11558;-73
2022/05/14 10:31:18;;;;;;;;;12.00;11.00;30.20;33.80;;;;;;5015176;28;11682;-73
2022/05/14 10:33:47;;;;;;;;;10.67;10.67;30.80;33.10;;;;;;5014850;28;11526;-76
2022/05/14 10:36:29;;;;;;;;;13.00;13.00;30.10;33.20;;;;;;5015075;28;11503;-72
2022/05/14 10:39:01;;;;;;;;;11.67;11.67;30.70;32.80;;;;;;5030358;28;12272;-72
2022/05/14 10:41:51;;;;;;;;;10.00;10.00;31.10;32.00;;;;;;5015091;28;11531;-72
2022/05/14 10:44:35;;;;;;;;;11.33;11.33;30.90;31.70;;;;;;5015025;28;11568;-72
2022/05/14 10:47:04;;;;;;;;;10.00;10.00;30.40;33.00;;;;;;5015003;28;12018;-72
2022/05/14 10:50:06;;;;;;;;;13.33;13.33;30.00;34.10;;;;;;5014497;28;11493;-73
2022/05/14 10:52:32;;;;;;;;;12.67;12.67;30.50;33.40;;;;;;5014828;28;11513;-72
2022/05/14 10:54:58;;;;;;;;;12.33;12.33;30.70;32.20;;;;;;5014498;28;11554;-75
2022/05/14 10:57:39;;;;;;;;;12.33;12.00;30.90;31.70;;;;;;5014944;28;8764;-74
2022/05/14 11:00:18;;;;;;;;;9.00;9.00;31.60;31.20;;;;;;5014831;28;11592;-73
2022/05/14 11:03:13;;;;;;;;;4.00;4.00;32.00;29.40;;;;;;5014707;28;11628;-75
2022/05/14 11:06:02;;;;;;;;;12.75;12.75;31.90;28.10;;;;;;5029816;28;11470;-72
2022/05/14 11:08:31;;;;;;;;;7.00;7.00;32.50;28.00;;;;;;5014302;28;11622;-73
2022/05/14 11:11:20;;;;;;;;;10.00;10.00;32.80;27.20;;;;;;5014384;28;11469;-73
2022/05/14 11:14:03;;;;;;;;;11.25;11.25;33.00;27.50;;;;;;5014677;28;11491;-73
2022/05/14 11:16:47;;;;;;;;;8.25;8.25;32.90;27.10;;;;;;5014441;28;11515;-74
2022/05/14 11:19:31;;;;;;;;;10.50;10.50;33.90;27.10;;;;;;5014308;28;11549;-74
2022/05/14 11:21:58;;;;;;;;;9.50;9.50;34.70;26.20;;;;;;5029710;28;11537;-74
2022/05/14 11:24:36;;;;;;;;;10.25;10.25;34.80;25.40;;;;;;5014405;28;11466;-74
2022/05/14 11:27:01;;;;;;;;;9.50;9.50;35.00;25.20;;;;;;5017711;28;11609;-73
2022/05/14 11:29:33;;;;;;;;;9.50;9.50;35.40;24.70;;;;;;5018350;28;12346;-74
2022/05/14 11:32:10;;;;;;;;;7.75;7.75;34.20;25.20;;;;;;5018365;28;8772;-73
2022/05/14 11:34:36;;;;;;;;;8.75;8.75;34.30;25.40;;;;;;5017964;28;11687;-73
2022/05/14 11:37:05;;;;;;;;;9.75;9.75;38.10;24.70;;;;;;5018405;28;11483;-73
2022/05/14 11:39:38;;;;;;;;;10.75;10.75;38.40;22.20;;;;;;5018047;28;11474;-73
2022/05/14 11:42:23;;;;;;;;;8.25;8.25;43.60;20.40;;;;;;5018126;28;11542;-73
2022/05/14 11:45:04;;;;;;;;;9.50;9.50;49.70;17.60;;;;;;5018047;28;11435;-73
2022/05/14 11:47:29;;;;;;;;;9.00;9.00;53.10;14.70;;;;;;5018214;28;11493;-74
2022/05/14 11:49:57;;;;;;;;;10.00;10.00;52.10;13.50;;;;;;5017982;28;12214;-74
2022/05/14 11:52:33;;;;;;;;;9.00;9.00;45.90;15.70;;;;;;5018164;28;8784;-74
2022/05/14 11:55:28;;;;;;;;;8.50;8.50;41.10;18.70;;;;;;5017912;28;11698;-74
2022/05/14 11:58:04;;;;;;;;;10.50;10.50;38.80;21.00;;;;;;5016565;28;11494;-73
2022/05/14 12:00:34;;;;;;;;;10.00;10.00;41.00;20.40;;;;;;5017648;28;12307;-73
2022/05/14 12:03:18;;;;;;;;;7.50;7.50;39.90;18.90;;;;;;5033542;28;11497;-73
2022/05/14 12:06:19;;;;;;;;;9.75;9.75;43.20;19.60;;;;;;5017587;28;12116;-72
2022/05/14 12:09:00;;;;;;;;;6.00;6.00;49.40;17.00;;;;;;5015575;28;11685;-74
2022/05/14 12:11:50;;;;;;;;;8.00;8.00;48.70;13.90;;;;;;5017786;28;11502;-73
2022/05/14 12:14:26;;;;;;;;;10.50;10.50;44.00;15.90;;;;;;5017488;28;11468;-73
2022/05/14 12:16:58;;;;;;;;;9.00;8.50;40.20;18.00;;;;;;5017548;28;11531;-73
2022/05/14 12:19:46;;;;;;;;;11.50;11.50;38.20;19.60;;;;;;5017664;28;11497;-74
2022/05/14 12:22:14;;;;;;;;;8.25;8.25;37.40;20.50;;;;;;5017539;28;12318;-73
2022/05/14 12:24:54;;;;;;;;;10.00;10.00;36.70;21.00;;;;;;5017021;28;11499;-73
2022/05/14 12:27:20;;;;;;;;;8.00;8.00;36.50;21.20;;;;;;5017387;28;11596;-73
2022/05/14 12:30:12;;;;;;;;;9.00;9.00;36.50;20.80;;;;;;5016863;28;11524;-73
2022/05/14 12:35:33;;;;;;;;;9.00;9.00;35.10;22.00;;;;;;5016951;28;11581;-74
2022/05/14 12:38:02;;;;;;;;;7.00;7.00;33.90;22.70;;;;;;5016058;28;11540;-73
2022/05/14 12:40:35;;;;;;;;;9.25;9.25;33.50;23.40;;;;;;5016800;28;11539;-73
2022/05/14 12:43:04;;;;;;;;;7.50;7.50;33.80;24.60;;;;;;5017176;28;11516;-73
2022/05/14 12:45:39;;;;;;;;;11.75;11.75;34.70;23.90;;;;;;5016751;28;11476;-73
2022/05/14 12:48:07;;;;;;;;;9.25;9.25;33.90;22.70;;;;;;5016918;28;11580;-73
2022/05/14 12:50:33;;;;;;;;;9.00;9.00;34.00;22.80;;;;;;5016730;28;11458;-73
2022/05/14 12:53:06;;;;;;;;;10.00;10.00;34.60;22.60;;;;;;5016655;28;11542;-73
2022/05/14 12:55:36;;;;;;;;;9.75;9.75;34.80;22.70;;;;;;5016915;28;11509;-76
2022/05/14 12:58:10;;;;;;;;;11.00;11.00;35.30;22.10;;;;;;5000080;28;11492;-80
2022/05/14 13:00:38;;;;;;;;;10.25;10.25;35.80;22.60;;;;;;5016874;28;11584;-75
2022/05/14 13:03:16;;;;;;;;;10.00;10.00;36.30;22.80;;;;;;5016668;28;11591;-77
2022/05/14 13:05:52;;;;;;;;;10.75;10.75;36.20;21.60;;;;;;5016588;28;11476;-78
2022/05/14 13:08:22;;;;;;;;;9.00;9.00;36.00;21.20;;;;;;5016681;28;11604;-80
2022/05/14 13:11:18;;;;;;;;;9.75;9.75;35.60;21.80;;;;;;5017169;28;11510;-76
2022/05/14 13:13:51;;;;;;;;;7.00;7.00;35.70;21.90;;;;;;5015816;28;11596;-75